Time,TemperatureF,DewpointF,PressureIn,WindDirection,WindDirectionDegrees,WindSpeedMPH,WindSpeedGustMPH,Humidity,HourlyPrecipIn,Conditions,Clouds,dailyrainin,SoftwareType,DateUTC
2013-09-03 00:00:00,64.3,61.6,29.79,ENE,69,0.0,0.0,91,0.00,,,0.00,Wunderground v.1.15,2013-09-03 04:00:00,
2013-09-03 00:05:00,64.2,61.5,29.79,ENE,69,0.0,0.0,91,0.00,,,0.00,Wunderground v.1.15,2013-09-03 04:05:00,
2013-09-03 00:10:00,64.0,61.0,29.79,ENE,69,0.0,0.0,90,0.00,,,0.00,Wunderground v.1.15,2013-09-03 04:10:00,
2013-09-03 00:15:00,64.0,61.0,29.79,ENE,69,0.0,0.0,90,0.00,,,0.00,Wunderground v.1.15,2013-09-03 04:15:00,
2013-09-03 00:25:00,63.7,60.7,29.79,ENE,69,0.0,0.0,90,0.00,,,0.00,Wunderground v.1.15,2013-09-03 04:25:00,
2013-09-03 00:30:00,63.5,60.5,29.79,ENE,69,0.0,0.0,90,0.00,,,0.00,Wunderground v.1.15,2013-09-03 04:30:00,
2013-09-03 00:40:00,63.4,60.4,29.79,ENE,69,0.0,0.0,90,0.00,,,0.00,Wunderground v.1.15,2013-09-03 04:40:00,
2013-09-03 00:45:00,63.2,60.2,29.79,ENE,69,0.0,0.0,90,0.00,,,0.00,Wunderground v.1.15,2013-09-03 04:45:00,
2013-09-03 00:55:00,62.9,59.9,29.79,ENE,69,0.0,0.0,90,0.00,,,0.00,Wunderground v.1.15,2013-09-03 04:55:00,
2013-09-03 01:00:00,62.9,59.9,29.80,ENE,69,0.0,0.0,90,0.00,,,0.00,Wunderground v.1.15,2013-09-03 05:00:00,
2013-09-03 01:10:00,62.6,59.6,29.80,ENE,69,0.0,0.0,90,0.00,,,0.00,Wunderground v.1.15,2013-09-03 05:10:00,
2013-09-03 01:15:00,62.4,59.4,29.80,ENE,69,0.0,0.0,90,0.00,,,0.00,Wunderground v.1.15,2013-09-03 05:15:00,
2013-09-03 01:25:00,62.3,59.6,29.80,ENE,69,0.0,0.0,91,0.00,,,0.00,Wunderground v.1.15,2013-09-03 05:25:00,
2013-09-03 01:30:00,62.1,59.4,29.80,ENE,69,0.0,0.0,91,0.00,,,0.00,Wunderground v.1.15,2013-09-03 05:30:00,
2013-09-03 01:40:00,62.1,59.4,29.80,ENE,69,0.0,0.0,91,0.00,,,0.00,Wunderground v.1.15,2013-09-03 05:40:00,
2013-09-03 01:45:00,62.1,59.4,29.80,ENE,69,0.0,0.0,91,0.00,,,0.00,Wunderground v.1.15,2013-09-03 05:45:00,
2013-09-03 01:55:00,61.8,59.1,29.80,ENE,69,0.0,0.0,91,0.00,,,0.00,Wunderground v.1.15,2013-09-03 05:55:00,
2013-09-03 02:00:00,61.8,59.1,29.80,NE,53,0.0,0.0,91,0.00,,,0.00,Wunderground v.1.15,2013-09-03 06:00:00,
2013-09-03 02:10:00,61.6,58.9,29.80,NE,53,0.0,0.0,91,0.00,,,0.00,Wunderground v.1.15,2013-09-03 06:10:00,
2013-09-03 02:15:00,61.6,58.6,29.80,ENE,73,0.0,0.0,90,0.00,,,0.00,Wunderground v.1.15,2013-09-03 06:15:00,
2013-09-03 02:20:00,61.5,58.5,29.80,ENE,71,0.0,0.0,90,0.00,,,0.00,Wunderground v.1.15,2013-09-03 06:20:00,
2013-09-03 02:25:00,61.5,58.2,29.80,NE,55,0.0,0.0,89,0.00,,,0.00,Wunderground v.1.15,2013-09-03 06:25:00,
2013-09-03 02:30:00,61.3,57.7,29.80,NE,55,0.0,0.0,88,0.00,,,0.00,Wunderground v.1.15,2013-09-03 06:30:00,
2013-09-03 02:40:00,61.2,57.6,29.80,NE,55,0.0,0.0,88,0.00,,,0.00,Wunderground v.1.15,2013-09-03 06:40:00,
2013-09-03 02:45:00,61.0,57.4,29.80,NE,55,0.0,0.0,88,0.00,,,0.00,Wunderground v.1.15,2013-09-03 06:45:00,
2013-09-03 02:55:00,60.7,57.1,29.80,NE,55,0.0,0.0,88,0.00,,,0.00,Wunderground v.1.15,2013-09-03 06:55:00,
2013-09-03 03:00:00,60.5,57.2,29.80,NE,55,0.0,0.0,89,0.00,,,0.00,Wunderground v.1.15,2013-09-03 07:00:00,
2013-09-03 03:10:00,60.2,56.9,29.80,ENE,57,0.0,0.0,89,0.00,,,0.00,Wunderground v.1.15,2013-09-03 07:10:00,
2013-09-03 03:15:00,59.9,57.0,29.80,ENE,57,0.0,0.0,90,0.00,,,0.00,Wunderground v.1.15,2013-09-03 07:15:00,
2013-09-03 03:25:00,59.6,56.7,29.80,ENE,57,0.0,0.0,90,0.00,,,0.00,Wunderground v.1.15,2013-09-03 07:25:00,
2013-09-03 03:30:00,59.5,56.6,29.80,ENE,57,0.0,0.0,90,0.00,,,0.00,Wunderground v.1.15,2013-09-03 07:30:00,
2013-09-03 03:40:00,59.2,56.3,29.80,ENE,57,0.0,0.0,90,0.00,,,0.00,Wunderground v.1.15,2013-09-03 07:40:00,
2013-09-03 03:45:00,59.0,56.1,29.80,ENE,57,0.0,0.0,90,0.00,,,0.00,Wunderground v.1.15,2013-09-03 07:45:00,
2013-09-03 03:55:00,58.7,56.1,29.80,ENE,57,0.0,0.0,91,0.00,,,0.00,Wunderground v.1.15,2013-09-03 07:55:00,
2013-09-03 04:00:00,58.6,56.0,29.81,ENE,57,0.0,0.0,91,0.00,,,0.00,Wunderground v.1.15,2013-09-03 08:00:00,
2013-09-03 04:05:00,58.4,55.8,29.81,ENE,57,0.0,0.0,91,0.00,,,0.00,Wunderground v.1.15,2013-09-03 08:05:00,
2013-09-03 04:15:00,58.3,55.7,29.81,ENE,57,0.0,0.0,91,0.00,,,0.00,Wunderground v.1.15,2013-09-03 08:15:00,
2013-09-03 04:25:00,58.0,55.7,29.81,ENE,57,0.0,0.0,92,0.00,,,0.00,Wunderground v.1.15,2013-09-03 08:25:00,
2013-09-03 04:30:00,57.8,55.5,29.82,ENE,57,0.0,0.0,92,0.00,,,0.00,Wunderground v.1.15,2013-09-03 08:30:00,
2013-09-03 04:40:00,57.6,55.3,29.82,ENE,57,0.0,0.0,92,0.00,,,0.00,Wunderground v.1.15,2013-09-03 08:40:00,
2013-09-03 04:45:00,57.5,55.2,29.82,ENE,57,0.0,0.0,92,0.00,,,0.00,Wunderground v.1.15,2013-09-03 08:45:00,
2013-09-03 04:55:00,57.2,54.9,29.82,ENE,57,0.0,0.0,92,0.00,,,0.00,Wunderground v.1.15,2013-09-03 08:55:00,
2013-09-03 05:00:00,57.0,54.7,29.82,ENE,57,0.0,0.0,92,0.00,,,0.00,Wunderground v.1.15,2013-09-03 09:00:00,
2013-09-03 05:10:00,56.9,54.6,29.82,ENE,57,0.0,0.0,92,0.00,,,0.00,Wunderground v.1.15,2013-09-03 09:10:00,
2013-09-03 05:15:00,56.7,54.4,29.82,ENE,57,0.0,0.0,92,0.00,,,0.00,Wunderground v.1.15,2013-09-03 09:15:00,
2013-09-03 05:25:00,56.6,54.6,29.82,ENE,57,0.0,0.0,93,0.00,,,0.00,Wunderground v.1.15,2013-09-03 09:25:00,
2013-09-03 05:30:00,56.5,54.5,29.83,ENE,57,0.0,0.0,93,0.00,,,0.00,Wunderground v.1.15,2013-09-03 09:30:00,
2013-09-03 05:40:00,56.3,54.3,29.83,NE,56,0.0,0.0,93,0.00,,,0.00,Wunderground v.1.15,2013-09-03 09:40:00,
2013-09-03 05:45:00,56.2,54.2,29.83,NE,56,0.0,0.0,93,0.00,,,0.00,Wunderground v.1.15,2013-09-03 09:45:00,
2013-09-03 05:55:00,56.0,54.0,29.83,NE,56,0.0,0.0,93,0.00,,,0.00,Wunderground v.1.15,2013-09-03 09:55:00,
2013-09-03 06:00:00,55.9,53.9,29.83,NE,56,0.0,0.0,93,0.00,,,0.00,Wunderground v.1.15,2013-09-03 10:00:00,
2013-09-03 06:10:00,55.7,53.7,29.83,NE,56,0.0,0.0,93,0.00,,,0.00,Wunderground v.1.15,2013-09-03 10:10:00,
2013-09-03 06:15:00,55.6,53.6,29.84,NE,56,0.0,0.0,93,0.00,,,0.00,Wunderground v.1.15,2013-09-03 10:15:00,
2013-09-03 06:25:00,55.4,53.4,29.84,NE,56,0.0,0.0,93,0.00,,,0.00,Wunderground v.1.15,2013-09-03 10:25:00,
2013-09-03 06:30:00,55.3,53.3,29.85,NE,55,0.0,0.0,93,0.00,,,0.00,Wunderground v.1.15,2013-09-03 10:30:00,
2013-09-03 06:40:00,55.0,53.0,29.85,NE,55,0.0,0.0,93,0.00,,,0.00,Wunderground v.1.15,2013-09-03 10:40:00,
2013-09-03 06:45:00,54.8,52.8,29.85,NE,55,0.0,0.0,93,0.00,,,0.00,Wunderground v.1.15,2013-09-03 10:45:00,
2013-09-03 06:55:00,54.7,52.7,29.85,NE,52,0.0,0.0,93,0.00,,,0.00,Wunderground v.1.15,2013-09-03 10:55:00,
2013-09-03 07:00:00,54.5,52.5,29.86,NE,52,0.0,0.0,93,0.00,,,0.00,Wunderground v.1.15,2013-09-03 11:00:00,
2013-09-03 07:10:00,54.4,52.4,29.86,NE,52,0.0,0.0,93,0.00,,,0.00,Wunderground v.1.15,2013-09-03 11:10:00,
2013-09-03 07:15:00,54.2,52.2,29.86,ENE,59,0.0,0.0,93,0.00,,,0.00,Wunderground v.1.15,2013-09-03 11:15:00,
2013-09-03 07:25:00,54.1,52.1,29.86,ENE,59,0.0,0.0,93,0.00,,,0.00,Wunderground v.1.15,2013-09-03 11:25:00,
2013-09-03 07:30:00,54.1,52.1,29.86,North,10,0.0,0.0,93,0.00,,,0.00,Wunderground v.1.15,2013-09-03 11:30:00,
2013-09-03 07:40:00,53.9,51.9,29.86,ENE,57,0.0,0.0,93,0.00,,,0.00,Wunderground v.1.15,2013-09-03 11:40:00,
2013-09-03 07:45:00,54.1,52.1,29.87,NE,46,0.0,0.0,93,0.00,,,0.00,Wunderground v.1.15,2013-09-03 11:45:00,
2013-09-03 07:55:00,54.2,52.2,29.87,NNE,31,0.0,0.0,93,0.00,,,0.00,Wunderground v.1.15,2013-09-03 11:55:00,
2013-09-03 08:00:00,54.2,51.9,29.87,NE,48,0.0,0.0,92,0.00,,,0.00,Wunderground v.1.15,2013-09-03 12:00:00,
2013-09-03 08:10:00,54.7,52.4,29.87,NE,34,0.0,0.0,92,0.00,,,0.00,Wunderground v.1.15,2013-09-03 12:10:00,
2013-09-03 08:15:00,54.8,52.5,29.89,NNE,28,0.0,0.0,92,0.00,,,0.00,Wunderground v.1.15,2013-09-03 12:15:00,
2013-09-03 08:25:00,55.4,52.8,29.89,NE,42,0.0,0.0,91,0.00,,,0.00,Wunderground v.1.15,2013-09-03 12:25:00,
2013-09-03 08:30:00,55.7,52.8,29.89,NNE,32,0.0,0.0,90,0.00,,,0.00,Wunderground v.1.15,2013-09-03 12:30:00,
2013-09-03 08:40:00,55.7,52.2,29.89,NE,50,0.0,1.0,88,0.00,,,0.00,Wunderground v.1.15,2013-09-03 12:40:00,
2013-09-03 08:45:00,55.7,52.2,29.90,NE,44,0.0,1.0,88,0.00,,,0.00,Wunderground v.1.15,2013-09-03 12:45:00,
2013-09-03 08:55:00,56.0,52.5,29.90,SE,143,0.0,0.0,88,0.00,,,0.00,Wunderground v.1.15,2013-09-03 12:55:00,
2013-09-03 09:00:00,56.2,52.1,29.90,NE,41,0.0,0.0,86,0.00,,,0.00,Wunderground v.1.15,2013-09-03 13:00:00,
2013-09-03 09:10:00,56.9,52.1,29.90,NNE,31,0.0,0.0,84,0.00,,,0.00,Wunderground v.1.15,2013-09-03 13:10:00,
2013-09-03 09:15:00,57.2,52.1,29.91,NE,52,0.0,0.0,83,0.00,,,0.00,Wunderground v.1.15,2013-09-03 13:15:00,
2013-09-03 09:25:00,57.6,52.5,29.91,NNE,23,0.0,0.0,83,0.00,,,0.00,Wunderground v.1.15,2013-09-03 13:25:00,
2013-09-03 09:30:00,58.0,53.2,29.91,ENE,74,0.0,0.0,84,0.00,,,0.00,Wunderground v.1.15,2013-09-03 13:30:00,
2013-09-03 09:40:00,58.4,52.3,29.91,NNE,15,0.0,0.0,80,0.00,,,0.00,Wunderground v.1.15,2013-09-03 13:40:00,
2013-09-03 09:45:00,58.9,52.7,29.91,NE,41,0.0,0.0,80,0.00,,,0.00,Wunderground v.1.15,2013-09-03 13:45:00,
2013-09-03 09:55:00,59.6,53.1,29.91,ENE,67,0.0,1.0,79,0.00,,,0.00,Wunderground v.1.15,2013-09-03 13:55:00,
2013-09-03 10:00:00,59.6,52.4,29.92,ENE,66,0.0,0.0,77,0.00,,,0.00,Wunderground v.1.15,2013-09-03 14:00:00,
2013-09-03 10:10:00,59.6,53.1,29.92,ENE,62,0.0,0.0,79,0.00,,,0.00,Wunderground v.1.15,2013-09-03 14:10:00,
2013-09-03 10:15:00,59.8,52.9,29.92,NE,49,0.0,0.0,78,0.00,,,0.00,Wunderground v.1.15,2013-09-03 14:15:00,
2013-09-03 10:25:00,59.6,52.0,29.92,NE,38,0.0,0.0,76,0.00,,,0.00,Wunderground v.1.15,2013-09-03 14:25:00,
2013-09-03 10:30:00,59.8,52.2,29.92,NNE,33,0.0,0.0,76,0.00,,,0.00,Wunderground v.1.15,2013-09-03 14:30:00,
2013-09-03 10:40:00,59.9,52.3,29.92,North,360,0.0,0.0,76,0.00,,,0.00,Wunderground v.1.15,2013-09-03 14:40:00,
2013-09-03 10:45:00,60.4,52.4,29.92,NE,36,0.0,0.0,75,0.00,,,0.00,Wunderground v.1.15,2013-09-03 14:45:00,
2013-09-03 10:55:00,60.5,51.8,29.92,NE,44,0.0,2.0,73,0.00,,,0.00,Wunderground v.1.15,2013-09-03 14:55:00,
2013-09-03 11:00:00,60.7,51.6,29.92,NE,51,0.0,0.0,72,0.00,,,0.00,Wunderground v.1.15,2013-09-03 15:00:00,
2013-09-03 11:05:00,61.0,51.9,29.92,North,11,1.0,1.0,72,0.00,,,0.00,Wunderground v.1.15,2013-09-03 15:05:00,
2013-09-03 11:15:00,61.3,51.8,29.93,ENE,57,0.0,1.0,71,0.00,,,0.00,Wunderground v.1.15,2013-09-03 15:15:00,
2013-09-03 11:25:00,62.4,52.5,29.93,East,79,0.0,0.0,70,0.00,,,0.00,Wunderground v.1.15,2013-09-03 15:25:00,
2013-09-03 11:30:00,62.7,52.0,29.93,NE,37,0.0,0.0,68,0.00,,,0.00,Wunderground v.1.15,2013-09-03 15:30:00,
2013-09-03 11:40:00,62.9,51.8,29.93,NE,46,0.0,0.0,67,0.00,,,0.00,Wunderground v.1.15,2013-09-03 15:40:00,
2013-09-03 11:45:00,62.9,51.4,29.93,NE,50,0.0,0.0,66,0.00,,,0.00,Wunderground v.1.15,2013-09-03 15:45:00,
2013-09-03 11:55:00,63.2,51.6,29.93,NE,46,0.0,0.0,66,0.00,,,0.00,Wunderground v.1.15,2013-09-03 15:55:00,
2013-09-03 12:00:00,63.5,51.1,29.93,NE,47,0.0,0.0,64,0.00,,,0.00,Wunderground v.1.15,2013-09-03 16:00:00,
2013-09-03 12:10:00,63.9,51.5,29.93,ENE,72,0.0,0.0,64,0.00,,,0.00,Wunderground v.1.15,2013-09-03 16:10:00,
2013-09-03 12:15:00,64.2,52.2,29.93,NNW,340,0.0,0.0,65,0.00,,,0.00,Wunderground v.1.15,2013-09-03 16:15:00,
2013-09-03 12:25:00,63.7,52.1,29.93,NE,54,0.0,1.0,66,0.00,,,0.00,Wunderground v.1.15,2013-09-03 16:25:00,
2013-09-03 12:30:00,63.7,52.1,29.94,SE,146,0.0,0.0,66,0.00,,,0.00,Wunderground v.1.15,2013-09-03 16:30:00,
2013-09-03 12:40:00,63.5,51.1,29.94,ENE,67,0.0,0.0,64,0.00,,,0.00,Wunderground v.1.15,2013-09-03 16:40:00,
2013-09-03 12:45:00,63.4,51.4,29.93,WSW,258,0.0,0.0,65,0.00,,,0.00,Wunderground v.1.15,2013-09-03 16:45:00,
2013-09-03 12:55:00,63.9,52.3,29.93,ESE,107,0.0,0.0,66,0.00,,,0.00,Wunderground v.1.15,2013-09-03 16:55:00,
2013-09-03 13:00:00,64.5,53.3,29.93,North,350,0.0,0.0,67,0.00,,,0.00,Wunderground v.1.15,2013-09-03 17:00:00,
2013-09-03 13:10:00,65.0,53.8,29.93,WSW,241,0.0,0.0,67,0.00,,,0.00,Wunderground v.1.15,2013-09-03 17:10:00,
2013-09-03 13:15:00,65.0,51.7,29.93,NNE,32,0.0,0.0,62,0.00,,,0.00,Wunderground v.1.15,2013-09-03 17:15:00,
2013-09-03 13:25:00,64.5,51.6,29.93,NE,37,0.0,7.0,63,0.00,,,0.00,Wunderground v.1.15,2013-09-03 17:25:00,
2013-09-03 13:30:00,64.0,52.8,29.93,ENE,69,1.0,1.0,67,0.00,,,0.00,Wunderground v.1.15,2013-09-03 17:30:00,
2013-09-03 13:40:00,64.2,52.6,29.93,NE,55,0.0,0.0,66,0.00,,,0.00,Wunderground v.1.15,2013-09-03 17:40:00,
2013-09-03 13:45:00,64.3,51.9,29.93,NE,43,0.0,0.0,64,0.00,,,0.00,Wunderground v.1.15,2013-09-03 17:45:00,
2013-09-03 13:55:00,65.3,51.9,29.93,NE,38,0.0,0.0,62,0.00,,,0.00,Wunderground v.1.15,2013-09-03 17:55:00,
2013-09-03 14:00:00,65.3,52.8,29.94,NE,54,0.0,0.0,64,0.00,,,0.00,Wunderground v.1.15,2013-09-03 18:00:00,
2013-09-03 14:10:00,64.7,52.7,29.94,West,277,0.0,0.0,65,0.00,,,0.00,Wunderground v.1.15,2013-09-03 18:10:00,
2013-09-03 14:15:00,65.0,52.5,29.94,NE,55,0.0,0.0,64,0.00,,,0.00,Wunderground v.1.15,2013-09-03 18:15:00,
2013-09-03 14:25:00,64.8,51.5,29.94,NE,55,0.0,0.0,62,0.00,,,0.00,Wunderground v.1.15,2013-09-03 18:25:00,
2013-09-03 14:30:00,64.5,52.0,29.93,NNE,20,0.0,0.0,64,0.00,,,0.00,Wunderground v.1.15,2013-09-03 18:30:00,
2013-09-03 14:40:00,65.5,52.6,29.93,NE,44,0.0,0.0,63,0.00,,,0.00,Wunderground v.1.15,2013-09-03 18:40:00,
2013-09-03 14:45:00,65.6,54.3,29.93,NE,38,0.0,0.0,67,0.00,,,0.00,Wunderground v.1.15,2013-09-03 18:45:00,
2013-09-03 14:55:00,66.1,53.6,29.93,ENE,67,0.0,3.0,64,0.00,,,0.00,Wunderground v.1.15,2013-09-03 18:55:00,
2013-09-03 15:00:00,66.1,53.6,29.93,ENE,58,0.0,1.0,64,0.00,,,0.00,Wunderground v.1.15,2013-09-03 19:00:00,
2013-09-03 15:10:00,66.0,53.9,29.93,NNE,23,0.0,0.0,65,0.00,,,0.00,Wunderground v.1.15,2013-09-03 19:10:00,
2013-09-03 15:15:00,66.1,53.6,29.93,North,11,0.0,0.0,64,0.00,,,0.00,Wunderground v.1.15,2013-09-03 19:15:00,
2013-09-03 15:25:00,66.0,55.1,29.93,SSE,163,0.0,0.0,68,0.00,,,0.00,Wunderground v.1.15,2013-09-03 19:25:00,
2013-09-03 15:30:00,65.8,53.3,29.94,NE,49,0.0,0.0,64,0.00,,,0.00,Wunderground v.1.15,2013-09-03 19:30:00,
2013-09-03 15:40:00,65.6,54.3,29.94,NE,49,0.0,0.0,67,0.00,,,0.00,Wunderground v.1.15,2013-09-03 19:40:00,
2013-09-03 15:45:00,65.6,53.9,29.93,ENE,67,0.0,0.0,66,0.00,,,0.00,Wunderground v.1.15,2013-09-03 19:45:00,
2013-09-03 15:55:00,65.5,54.7,29.93,ENE,69,0.0,0.0,68,0.00,,,0.00,Wunderground v.1.15,2013-09-03 19:55:00,
2013-09-03 16:00:00,65.2,53.6,29.93,WSW,239,0.0,0.0,66,0.00,,,0.00,Wunderground v.1.15,2013-09-03 20:00:00,
2013-09-03 16:10:00,64.8,54.0,29.93,ENE,62,0.0,0.0,68,0.00,,,0.00,Wunderground v.1.15,2013-09-03 20:10:00,
2013-09-03 16:15:00,64.8,54.0,29.94,ESE,104,0.0,0.0,68,0.00,,,0.00,Wunderground v.1.15,2013-09-03 20:15:00,
2013-09-03 16:25:00,64.7,54.3,29.94,NE,39,0.0,0.0,69,0.00,,,0.00,Wunderground v.1.15,2013-09-03 20:25:00,
2013-09-03 16:30:00,64.5,53.7,29.94,North,355,0.0,0.0,68,0.00,,,0.00,Wunderground v.1.15,2013-09-03 20:30:00,
2013-09-03 16:40:00,64.3,53.9,29.94,NE,37,0.0,0.0,69,0.00,,,0.00,Wunderground v.1.15,2013-09-03 20:40:00,
2013-09-03 16:45:00,64.3,55.1,29.93,NE,36,0.0,0.0,72,0.00,,,0.00,Wunderground v.1.15,2013-09-03 20:45:00,
2013-09-03 16:55:00,64.2,53.4,29.93,NE,44,0.0,0.0,68,0.00,,,0.00,Wunderground v.1.15,2013-09-03 20:55:00,
2013-09-03 17:00:00,64.2,53.4,29.93,NE,46,0.0,0.0,68,0.00,,,0.00,Wunderground v.1.15,2013-09-03 21:00:00,
2013-09-03 17:10:00,64.0,53.6,29.93,NNE,30,0.0,0.0,69,0.00,,,0.00,Wunderground v.1.15,2013-09-03 21:10:00,
2013-09-03 17:15:00,64.0,54.8,29.94,NE,34,0.0,0.0,72,0.00,,,0.00,Wunderground v.1.15,2013-09-03 21:15:00,
2013-09-03 17:25:00,63.9,53.9,29.94,North,355,0.0,0.0,70,0.00,,,0.00,Wunderground v.1.15,2013-09-03 21:25:00,
2013-09-03 17:30:00,63.7,54.5,29.94,NE,44,0.0,0.0,72,0.00,,,0.00,Wunderground v.1.15,2013-09-03 21:30:00,
2013-09-03 17:40:00,63.5,54.3,29.94,ENE,78,0.0,0.0,72,0.00,,,0.00,Wunderground v.1.15,2013-09-03 21:40:00,
2013-09-03 17:45:00,63.5,55.1,29.94,ENE,78,0.0,0.0,74,0.00,,,0.00,Wunderground v.1.15,2013-09-03 21:45:00,
2013-09-03 17:55:00,63.7,54.9,29.94,ENE,78,0.0,0.0,73,0.00,,,0.00,Wunderground v.1.15,2013-09-03 21:55:00,
2013-09-03 18:05:00,63.4,54.6,29.94,NE,38,0.0,0.0,73,0.00,,,0.00,Wunderground v.1.15,2013-09-03 22:05:00,
2013-09-03 18:15:00,63.1,54.7,29.95,North,360,0.0,0.0,74,0.00,,,0.00,Wunderground v.1.15,2013-09-03 22:15:00,
2013-09-03 18:25:00,63.1,54.3,29.95,North,360,0.0,0.0,73,0.00,,,0.00,Wunderground v.1.15,2013-09-03 22:25:00,
2013-09-03 18:30:00,62.9,53.7,29.95,North,360,0.0,0.0,72,0.00,,,0.00,Wunderground v.1.15,2013-09-03 22:30:00,
2013-09-03 18:40:00,62.9,55.2,29.95,North,360,0.0,0.0,76,0.00,,,0.00,Wunderground v.1.15,2013-09-03 22:40:00,
2013-09-03 18:45:00,62.7,54.7,29.95,North,360,0.0,0.0,75,0.00,,,0.00,Wunderground v.1.15,2013-09-03 22:45:00,
2013-09-03 18:55:00,62.6,54.2,29.95,North,9,0.0,0.0,74,0.00,,,0.00,Wunderground v.1.15,2013-09-03 22:55:00,
2013-09-03 19:00:00,62.6,54.2,29.95,North,9,0.0,0.0,74,0.00,,,0.00,Wunderground v.1.15,2013-09-03 23:00:00,
2013-09-03 19:10:00,62.4,54.4,29.95,North,9,0.0,0.0,75,0.00,,,0.00,Wunderground v.1.15,2013-09-03 23:10:00,
2013-09-03 19:15:00,62.3,53.5,29.95,North,9,0.0,0.0,73,0.00,,,0.00,Wunderground v.1.15,2013-09-03 23:15:00,
2013-09-03 19:25:00,62.1,54.4,29.95,North,9,0.0,0.0,76,0.00,,,0.00,Wunderground v.1.15,2013-09-03 23:25:00,
2013-09-03 19:30:00,62.0,54.3,29.95,North,9,0.0,0.0,76,0.00,,,0.00,Wunderground v.1.15,2013-09-03 23:30:00,
2013-09-03 19:40:00,61.6,54.7,29.95,North,9,0.0,0.0,78,0.00,,,0.00,Wunderground v.1.15,2013-09-03 23:40:00,
2013-09-03 19:45:00,61.5,54.9,29.95,North,9,0.0,0.0,79,0.00,,,0.00,Wunderground v.1.15,2013-09-03 23:45:00,
2013-09-03 19:55:00,61.3,55.1,29.95,North,9,0.0,0.0,80,0.00,,,0.00,Wunderground v.1.15,2013-09-03 23:55:00,
2013-09-03 20:00:00,61.2,55.0,29.96,North,9,0.0,0.0,80,0.00,,,0.00,Wunderground v.1.15,2013-09-04 00:00:00,
2013-09-03 20:10:00,61.0,55.1,29.96,North,9,0.0,0.0,81,0.00,,,0.00,Wunderground v.1.15,2013-09-04 00:10:00,
2013-09-03 20:15:00,61.0,55.1,29.97,North,9,0.0,0.0,81,0.00,,,0.00,Wunderground v.1.15,2013-09-04 00:15:00,
2013-09-03 20:25:00,60.5,54.6,29.97,North,9,0.0,0.0,81,0.00,,,0.00,Wunderground v.1.15,2013-09-04 00:25:00,
2013-09-03 20:30:00,59.9,54.4,29.97,North,9,0.0,0.0,82,0.00,,,0.00,Wunderground v.1.15,2013-09-04 00:30:00,
2013-09-03 20:40:00,59.3,54.1,29.97,North,9,0.0,0.0,83,0.00,,,0.00,Wunderground v.1.15,2013-09-04 00:40:00,
2013-09-03 20:45:00,58.7,53.9,29.97,North,9,0.0,0.0,84,0.00,,,0.00,Wunderground v.1.15,2013-09-04 00:45:00,
2013-09-03 20:55:00,58.0,53.5,29.97,North,9,0.0,0.0,85,0.00,,,0.00,Wunderground v.1.15,2013-09-04 00:55:00,
2013-09-03 21:00:00,57.6,52.8,29.97,North,9,0.0,0.0,84,0.00,,,0.00,Wunderground v.1.15,2013-09-04 01:00:00,
2013-09-03 21:10:00,57.2,52.7,29.97,North,9,0.0,0.0,85,0.00,,,0.00,Wunderground v.1.15,2013-09-04 01:10:00,
2013-09-03 21:15:00,56.9,53.1,29.97,North,9,0.0,0.0,87,0.00,,,0.00,Wunderground v.1.15,2013-09-04 01:15:00,
2013-09-03 21:25:00,56.6,53.1,29.97,North,9,0.0,0.0,88,0.00,,,0.00,Wunderground v.1.15,2013-09-04 01:25:00,
2013-09-03 21:30:00,56.3,52.8,29.98,North,9,0.0,0.0,88,0.00,,,0.00,Wunderground v.1.15,2013-09-04 01:30:00,
2013-09-03 21:40:00,56.0,52.5,29.98,North,9,0.0,0.0,88,0.00,,,0.00,Wunderground v.1.15,2013-09-04 01:40:00,
2013-09-03 21:45:00,56.0,52.5,29.98,North,9,0.0,0.0,88,0.00,,,0.00,Wunderground v.1.15,2013-09-04 01:45:00,
2013-09-03 21:55:00,55.7,52.8,29.98,North,9,0.0,0.0,90,0.00,,,0.00,Wunderground v.1.15,2013-09-04 01:55:00,
2013-09-03 22:00:00,55.6,52.7,29.99,North,9,0.0,0.0,90,0.00,,,0.00,Wunderground v.1.15,2013-09-04 02:00:00,
2013-09-03 22:10:00,55.4,52.8,29.99,North,9,0.0,0.0,91,0.00,,,0.00,Wunderground v.1.15,2013-09-04 02:10:00,
2013-09-03 22:15:00,55.3,52.7,29.99,North,9,0.0,0.0,91,0.00,,,0.00,Wunderground v.1.15,2013-09-04 02:15:00,
2013-09-03 22:25:00,55.1,52.8,29.99,North,9,0.0,0.0,92,0.00,,,0.00,Wunderground v.1.15,2013-09-04 02:25:00,
2013-09-03 22:30:00,55.0,52.7,29.99,North,9,0.0,0.0,92,0.00,,,0.00,Wunderground v.1.15,2013-09-04 02:30:00,
2013-09-03 22:40:00,54.8,52.5,29.99,North,9,0.0,0.0,92,0.00,,,0.00,Wunderground v.1.15,2013-09-04 02:40:00,
2013-09-03 22:45:00,54.7,52.7,29.99,North,9,0.0,0.0,93,0.00,,,0.00,Wunderground v.1.15,2013-09-04 02:45:00,
2013-09-03 22:55:00,54.4,52.4,29.99,North,9,0.0,0.0,93,0.00,,,0.00,Wunderground v.1.15,2013-09-04 02:55:00,
2013-09-03 23:00:00,54.4,52.4,29.99,North,9,0.0,0.0,93,0.00,,,0.00,Wunderground v.1.15,2013-09-04 03:00:00,
2013-09-03 23:10:00,54.2,52.2,29.99,North,9,0.0,0.0,93,0.00,,,0.00,Wunderground v.1.15,2013-09-04 03:10:00,
2013-09-03 23:15:00,54.1,52.1,29.99,North,9,0.0,0.0,93,0.00,,,0.00,Wunderground v.1.15,2013-09-04 03:15:00,
2013-09-03 23:25:00,53.8,52.1,29.99,North,9,0.0,0.0,94,0.00,,,0.00,Wunderground v.1.15,2013-09-04 03:25:00,
2013-09-03 23:30:00,53.8,52.1,29.99,North,9,0.0,0.0,94,0.00,,,0.00,Wunderground v.1.15,2013-09-04 03:30:00,
2013-09-03 23:40:00,53.6,51.9,29.99,North,9,0.0,0.0,94,0.00,,,0.00,Wunderground v.1.15,2013-09-04 03:40:00,
2013-09-03 23:45:00,53.5,51.8,29.99,North,9,0.0,0.0,94,0.00,,,0.00,Wunderground v.1.15,2013-09-04 03:45:00,
2013-09-03 23:55:00,53.3,51.6,29.99,North,9,0.0,0.0,94,0.00,,,0.00,Wunderground v.1.15,2013-09-04 03:55:00,